createdAt,value
2023-12-02T00:00:01.408Z,-3.00
2023-12-02T00:02:28.741Z,-3.00
2023-12-02T00:04:56.441Z,-3.00
2023-12-02T00:07:25.231Z,-3.00
2023-12-02T00:09:52.487Z,-3.00
2023-12-02T00:12:19.790Z,-3.00
2023-12-02T00:14:47.078Z,-3.00
2023-12-02T00:17:14.352Z,-3.10
2023-12-02T00:19:41.685Z,-3.10
2023-12-02T00:22:09.653Z,-3.10
2023-12-02T00:24:38.256Z,-3.10
2023-12-02T00:27:05.902Z,-3.20
2023-12-02T00:29:33.216Z,-3.20
2023-12-02T00:32:00.530Z,-3.20
2023-12-02T00:34:27.844Z,-3.20
2023-12-02T00:36:55.172Z,-3.30
2023-12-02T00:39:22.488Z,-3.30
2023-12-02T00:41:51.157Z,-3.20
2023-12-02T00:44:18.481Z,-3.20
2023-12-02T00:46:45.760Z,-3.30
2023-12-02T00:49:13.145Z,-3.30
2023-12-02T00:51:40.472Z,-3.40
2023-12-02T00:54:07.817Z,-3.50
2023-12-02T00:56:35.114Z,-3.40
2023-12-02T00:59:03.744Z,-3.40
2023-12-02T01:01:31.118Z,-3.40
2023-12-02T01:03:58.435Z,-3.40
2023-12-02T01:06:25.738Z,-3.40
2023-12-02T01:08:53.064Z,-3.40
2023-12-02T01:11:20.351Z,-3.40
2023-12-02T01:13:47.632Z,-3.40
2023-12-02T01:16:16.269Z,-3.40
2023-12-02T01:18:43.653Z,-3.40
2023-12-02T01:21:11.022Z,-3.40
2023-12-02T01:23:38.297Z,-3.40
2023-12-02T01:26:06.640Z,-3.40
2023-12-02T01:28:33.950Z,-3.40
2023-12-02T01:31:01.222Z,-3.40
2023-12-02T01:33:29.834Z,-3.40
2023-12-02T01:35:57.156Z,-3.50
2023-12-02T01:38:24.435Z,-3.40
2023-12-02T01:40:51.737Z,-3.40
2023-12-02T01:43:23.958Z,-3.50
2023-12-02T01:45:52.531Z,-3.50
2023-12-02T01:48:20.939Z,-3.50
2023-12-02T01:50:50.071Z,-3.50
2023-12-02T01:53:17.916Z,-3.40
2023-12-02T01:55:45.717Z,-3.50
2023-12-02T01:58:14.125Z,-3.50
2023-12-02T02:00:41.797Z,-3.50
2023-12-02T02:03:09.931Z,-3.40
2023-12-02T02:05:37.570Z,-3.50
2023-12-02T02:08:06.284Z,-3.50
2023-12-02T02:10:33.551Z,-3.50
2023-12-02T02:13:00.814Z,-3.50
2023-12-02T02:15:28.140Z,-3.50
2023-12-02T02:17:55.599Z,-3.40
2023-12-02T02:20:23.175Z,-3.40
2023-12-02T02:22:51.879Z,-3.50
2023-12-02T02:25:19.148Z,-3.40
2023-12-02T02:27:46.480Z,-3.50
2023-12-02T02:30:14.965Z,-3.50
2023-12-02T02:32:42.384Z,-3.50
2023-12-02T02:35:09.738Z,-3.50
2023-12-02T02:37:37.052Z,-3.50
2023-12-02T02:40:07.138Z,-3.50
2023-12-02T02:42:34.486Z,-3.50
2023-12-02T02:45:01.843Z,-3.50
2023-12-02T02:47:29.256Z,-3.60
2023-12-02T02:49:56.569Z,-3.60
2023-12-02T02:52:23.882Z,-3.70
2023-12-02T02:54:51.150Z,-3.60
2023-12-02T02:57:22.232Z,-3.70
2023-12-02T02:59:49.637Z,-3.70
2023-12-02T03:02:16.909Z,-3.60
2023-12-02T03:04:44.325Z,-3.70
2023-12-02T03:07:11.663Z,-3.70
2023-12-02T03:09:39.090Z,-3.70
2023-12-02T03:12:06.819Z,-3.70
2023-12-02T03:14:35.429Z,-3.70
2023-12-02T03:17:02.688Z,-3.70
2023-12-02T03:19:30.106Z,-3.70
2023-12-02T03:21:57.558Z,-3.70
2023-12-02T03:24:24.898Z,-3.80
2023-12-02T03:26:52.374Z,-3.80
2023-12-02T03:29:19.688Z,-3.80
2023-12-02T03:31:48.264Z,-3.80
2023-12-02T03:34:15.633Z,-3.80
2023-12-02T03:36:42.915Z,-3.90
2023-12-02T03:39:13.670Z,-3.90
2023-12-02T03:41:41.513Z,-3.90
2023-12-02T03:44:08.862Z,-3.90
2023-12-02T03:46:37.701Z,-3.90
2023-12-02T03:49:06.415Z,-4.00
2023-12-02T03:51:33.817Z,-4.00
2023-12-02T03:54:01.267Z,-4.00
2023-12-02T03:56:28.652Z,-4.00
2023-12-02T03:58:56.253Z,-4.00
2023-12-02T04:01:23.544Z,-4.10
2023-12-02T04:03:50.821Z,-4.00
2023-12-02T04:06:19.417Z,-4.10
2023-12-02T04:08:46.738Z,-4.20
2023-12-02T04:11:14.046Z,-4.20
2023-12-02T04:13:41.339Z,-4.20
2023-12-02T04:16:09.258Z,-4.20
2023-12-02T04:18:36.638Z,-4.20
2023-12-02T04:21:06.494Z,-4.20
2023-12-02T04:23:35.245Z,-4.20
2023-12-02T04:26:02.555Z,-4.20
2023-12-02T04:28:29.874Z,-4.20
2023-12-02T04:30:57.213Z,-4.20
2023-12-02T04:33:25.137Z,-4.20
2023-12-02T04:35:52.485Z,-4.20
2023-12-02T04:38:19.826Z,-4.30
2023-12-02T04:40:48.404Z,-4.40
2023-12-02T04:43:16.165Z,-4.30
2023-12-02T04:45:43.643Z,-4.30
2023-12-02T04:48:12.941Z,-4.30
2023-12-02T04:50:40.441Z,-4.30
2023-12-02T04:53:07.718Z,-4.20
2023-12-02T04:55:34.976Z,-4.20
2023-12-02T04:58:03.598Z,-4.20
2023-12-02T05:00:30.949Z,-4.30
2023-12-02T05:02:58.411Z,-4.30
2023-12-02T05:05:25.727Z,-4.30
2023-12-02T05:07:53.027Z,-4.30
2023-12-02T05:10:20.602Z,-4.30
2023-12-02T05:12:47.863Z,-4.30
2023-12-02T05:15:16.873Z,-4.40
2023-12-02T05:17:47.046Z,-4.50
2023-12-02T05:20:15.158Z,-4.60
2023-12-02T05:22:42.477Z,-4.60
2023-12-02T05:25:09.813Z,-4.50
2023-12-02T05:27:37.277Z,-4.50
2023-12-02T05:30:05.510Z,-4.50
2023-12-02T05:32:34.246Z,-4.60
2023-12-02T05:35:01.548Z,-4.70
2023-12-02T05:37:28.813Z,-4.70
2023-12-02T05:39:56.077Z,-4.70
2023-12-02T05:42:23.552Z,-4.60
2023-12-02T05:44:50.964Z,-4.70
2023-12-02T05:47:19.789Z,-4.70
2023-12-02T05:49:48.399Z,-4.80
2023-12-02T05:52:15.716Z,-4.80
2023-12-02T05:54:43.083Z,-4.80
2023-12-02T05:57:10.484Z,-4.80
2023-12-02T05:59:39.291Z,-4.80
2023-12-02T06:02:06.628Z,-4.80
2023-12-02T06:04:33.938Z,-4.80
2023-12-02T06:07:02.844Z,-4.80
2023-12-02T06:09:30.227Z,-4.90
2023-12-02T06:11:57.670Z,-4.90
2023-12-02T06:14:24.971Z,-4.90
2023-12-02T06:16:52.481Z,-4.90
2023-12-02T06:19:22.208Z,-4.90
2023-12-02T06:21:49.637Z,-4.90
2023-12-02T06:24:18.359Z,-4.80
2023-12-02T06:26:45.727Z,-4.80
2023-12-02T06:29:13.124Z,-4.80
2023-12-02T06:31:40.447Z,-4.70
2023-12-02T06:34:07.724Z,-4.70
2023-12-02T06:36:35.055Z,-4.70
2023-12-02T06:39:02.406Z,-4.70
2023-12-02T06:41:31.045Z,-4.60
2023-12-02T06:43:58.315Z,-4.60
2023-12-02T06:46:25.736Z,-4.70
2023-12-02T06:48:53.289Z,-4.70
2023-12-02T06:51:22.382Z,-4.60
2023-12-02T06:53:49.772Z,-4.60
2023-12-02T06:56:18.196Z,-4.70
2023-12-02T06:58:46.859Z,-4.60
2023-12-02T07:01:23.374Z,-4.60
2023-12-02T07:03:50.668Z,-4.60
2023-12-02T07:06:18.064Z,-4.50
2023-12-02T07:08:45.392Z,-4.50
2023-12-02T07:11:12.694Z,-4.50
2023-12-02T07:13:40.047Z,-4.50
2023-12-02T07:16:09.548Z,-4.50
2023-12-02T07:18:36.890Z,-4.40
2023-12-02T07:21:04.821Z,-4.40
2023-12-02T07:23:32.540Z,-4.40
2023-12-02T07:26:00.004Z,-4.30
2023-12-02T07:28:27.452Z,-4.30
2023-12-02T07:30:55.466Z,-4.40
2023-12-02T07:33:24.358Z,-4.30
2023-12-02T07:35:51.750Z,-4.30
2023-12-02T07:38:19.045Z,-4.40
2023-12-02T07:40:47.117Z,-4.40
2023-12-02T07:43:14.548Z,-4.40
2023-12-02T07:45:43.108Z,-4.40
2023-12-02T07:48:11.859Z,-4.40
2023-12-02T07:50:40.661Z,-4.40
2023-12-02T07:53:08.049Z,-4.40
2023-12-02T07:55:35.433Z,-4.30
2023-12-02T07:58:02.961Z,-4.20
2023-12-02T08:00:30.383Z,-4.10
2023-12-02T08:02:57.709Z,-4.20
2023-12-02T08:07:57.321Z,-4.20
2023-12-02T08:10:24.679Z,-4.10
2023-12-02T08:12:51.974Z,-4.10
2023-12-02T08:15:19.375Z,-4.00
2023-12-02T08:17:47.965Z,-4.00
2023-12-02T08:20:15.488Z,-3.90
2023-12-02T08:22:42.819Z,-3.80
2023-12-02T08:25:11.752Z,-3.90
2023-12-02T08:27:39.043Z,-3.90
2023-12-02T08:30:08.673Z,-3.90
2023-12-02T08:32:36.099Z,-3.80
2023-12-02T08:35:03.605Z,-3.80
2023-12-02T08:37:30.998Z,-3.80
2023-12-02T08:39:58.355Z,-3.80
2023-12-02T08:42:26.982Z,-3.70
2023-12-02T08:44:54.265Z,-3.70
2023-12-02T08:47:21.616Z,-3.60
2023-12-02T08:49:48.944Z,-3.50
2023-12-02T08:52:16.530Z,-3.50
2023-12-02T08:54:43.858Z,-3.50
2023-12-02T08:57:11.345Z,-3.40
2023-12-02T08:59:40.038Z,-3.40
2023-12-02T09:02:08.981Z,-3.30
2023-12-02T09:04:36.800Z,-3.20
2023-12-02T09:07:05.068Z,-3.20
2023-12-02T09:09:33.109Z,-3.10
2023-12-02T09:12:00.883Z,-3.10
2023-12-02T09:14:28.306Z,-3.10
2023-12-02T09:16:57.080Z,-3.10
2023-12-02T09:19:53.331Z,-3.00
2023-12-02T09:22:47.232Z,-3.00
2023-12-02T09:25:28.148Z,-3.00
2023-12-02T09:28:17.404Z,-2.90
2023-12-02T09:31:06.388Z,-2.90
2023-12-02T09:33:40.132Z,-2.80
2023-12-02T09:36:09.128Z,-2.70
2023-12-02T09:38:36.585Z,-2.60
2023-12-02T09:41:34.281Z,-2.50
2023-12-02T09:44:13.749Z,-2.50
2023-12-02T09:46:51.725Z,-2.50
2023-12-02T09:49:45.500Z,-2.50
2023-12-02T09:52:33.261Z,-2.40
2023-12-02T09:55:10.660Z,-2.30
2023-12-02T09:57:47.785Z,-2.20
2023-12-02T10:00:22.869Z,-2.20
2023-12-02T10:03:10.284Z,-2.10
2023-12-02T10:05:47.674Z,-2.00
2023-12-02T10:08:24.587Z,-2.00
2023-12-02T10:11:01.512Z,-2.00
2023-12-02T10:13:37.384Z,-2.00
2023-12-02T10:16:11.632Z,-1.90
2023-12-02T10:18:44.731Z,-2.00
2023-12-02T10:21:17.861Z,-2.00
2023-12-02T10:23:56.559Z,-2.00
2023-12-02T10:26:27.224Z,-2.00
2023-12-02T10:29:05.205Z,-2.00
2023-12-02T10:31:36.471Z,-2.00
2023-12-02T10:34:13.198Z,-2.00
2023-12-02T10:36:45.303Z,-2.00
2023-12-02T10:39:21.151Z,-2.00
2023-12-02T10:41:58.048Z,-2.10
2023-12-02T10:44:26.190Z,-2.00
2023-12-02T10:46:56.957Z,-2.00
2023-12-02T10:49:25.645Z,-2.00
2023-12-02T10:54:31.096Z,-1.90
2023-12-02T10:57:06.933Z,-1.90
2023-12-02T10:59:39.649Z,-1.80
2023-12-02T11:02:26.902Z,-1.80
2023-12-02T11:05:16.364Z,-1.80
2023-12-02T11:07:49.987Z,-1.90
2023-12-02T11:10:22.972Z,-2.00
2023-12-02T11:12:52.871Z,-1.90
2023-12-02T11:15:23.204Z,-1.90
2023-12-02T11:18:00.615Z,-1.80
2023-12-02T11:20:38.715Z,-1.80
2023-12-02T11:23:31.620Z,-1.90
2023-12-02T11:26:19.267Z,-1.80
2023-12-02T11:29:18.164Z,-1.80
2023-12-02T11:32:15.325Z,-1.90
2023-12-02T11:34:59.101Z,-1.90
2023-12-02T11:37:40.219Z,-2.00
2023-12-02T11:40:20.954Z,-2.00
2023-12-02T11:42:56.538Z,-2.10
2023-12-02T11:45:27.926Z,-2.00
2023-12-02T11:48:09.347Z,-2.10
2023-12-02T11:50:52.708Z,-2.00
2023-12-02T11:53:33.994Z,-2.00
2023-12-02T11:56:09.807Z,-1.90
2023-12-02T11:58:51.152Z,-1.90
2023-12-02T12:01:30.716Z,-1.90
2023-12-02T12:04:12.992Z,-2.00
2023-12-02T12:06:50.032Z,-2.00
2023-12-02T12:09:23.937Z,-2.10
2023-12-02T12:11:55.038Z,-2.10
2023-12-02T12:14:23.662Z,-2.00
2023-12-02T12:16:51.187Z,-2.00
2023-12-02T12:19:18.552Z,-1.90
2023-12-02T12:21:48.671Z,-1.90
2023-12-02T12:24:16.098Z,-1.90
2023-12-02T12:26:45.814Z,-1.90
2023-12-02T12:29:15.047Z,-2.10
2023-12-02T12:31:43.256Z,-2.10
2023-12-02T12:34:12.244Z,-2.10
2023-12-02T12:36:41.886Z,-2.10
2023-12-02T12:39:10.294Z,-2.10
2023-12-02T12:41:39.549Z,-2.10
2023-12-02T12:44:07.378Z,-2.00
2023-12-02T12:46:37.012Z,-2.10
2023-12-02T12:49:08.301Z,-2.10
2023-12-02T12:51:37.299Z,-2.10
2023-12-02T12:54:06.995Z,-2.10
2023-12-02T12:56:48.064Z,-2.10
2023-12-02T12:59:17.625Z,-2.10
2023-12-02T13:01:56.261Z,-2.00
2023-12-02T13:04:31.600Z,-2.10
2023-12-02T13:07:04.392Z,-2.20
2023-12-02T13:09:32.943Z,-2.20
2023-12-02T13:12:10.129Z,-2.10
2023-12-02T13:14:44.740Z,-2.10
2023-12-02T13:17:14.744Z,-2.20
2023-12-02T13:19:45.421Z,-2.10
2023-12-02T13:22:17.018Z,-2.20
2023-12-02T13:24:51.948Z,-2.20
2023-12-02T13:27:27.097Z,-2.10
2023-12-02T13:30:02.647Z,-2.10
2023-12-02T13:32:31.717Z,-2.20
2023-12-02T13:35:05.583Z,-2.20
2023-12-02T13:37:41.410Z,-2.20
2023-12-02T13:40:12.385Z,-2.20
2023-12-02T13:42:41.486Z,-2.20
2023-12-02T13:45:11.099Z,-2.30
2023-12-02T13:47:59.438Z,-2.20
2023-12-02T13:50:32.355Z,-2.20
2023-12-02T13:53:08.663Z,-2.20
2023-12-02T13:55:56.104Z,-2.20
2023-12-02T13:58:23.506Z,-2.20
2023-12-02T14:01:02.767Z,-2.10
2023-12-02T14:03:45.957Z,-2.10
2023-12-02T14:06:19.267Z,-2.10
2023-12-02T14:08:54.050Z,-2.10
2023-12-02T14:11:30.924Z,-2.10
2023-12-02T14:14:11.617Z,-2.10
2023-12-02T14:16:51.978Z,-2.10
2023-12-02T14:19:44.610Z,-2.10
2023-12-02T14:22:25.538Z,-2.10
2023-12-02T14:25:15.895Z,-2.00
2023-12-02T14:27:54.648Z,-2.10
2023-12-02T14:31:06.939Z,-2.20
2023-12-02T14:34:20.245Z,-2.20
2023-12-02T14:37:04.413Z,-2.20
2023-12-02T14:39:56.049Z,-2.00
2023-12-02T14:42:33.256Z,-2.10
2023-12-02T14:45:00.836Z,-2.10
2023-12-02T14:47:28.327Z,-2.20
2023-12-02T14:49:55.799Z,-2.20
2023-12-02T14:52:26.588Z,-2.20
2023-12-02T14:54:54.092Z,-2.20
2023-12-02T14:57:23.199Z,-2.10
2023-12-02T14:59:56.438Z,-2.10
2023-12-02T15:02:34.477Z,-2.10
2023-12-02T15:05:02.651Z,-2.00
2023-12-02T15:07:32.558Z,-2.00
2023-12-02T15:10:02.921Z,-2.00
2023-12-02T15:12:35.095Z,-1.90
2023-12-02T15:15:06.110Z,-1.90
2023-12-02T15:17:35.467Z,-1.90
2023-12-02T15:20:11.540Z,-1.90
2023-12-02T15:22:41.529Z,-2.00
2023-12-02T15:25:09.138Z,-2.00
2023-12-02T15:27:36.982Z,-2.00
2023-12-02T15:30:06.080Z,-2.00
2023-12-02T15:32:33.660Z,-1.90
2023-12-02T15:35:56.099Z,-1.50
2023-12-02T15:38:23.516Z,-1.90
2023-12-02T15:40:51.019Z,-1.90
2023-12-02T15:43:19.514Z,-1.90
2023-12-02T15:45:46.871Z,-2.00
2023-12-02T15:48:14.364Z,-2.00
2023-12-02T15:50:41.707Z,-1.90
2023-12-02T15:53:10.822Z,-1.90
2023-12-02T15:55:38.768Z,-1.90
2023-12-02T15:58:07.001Z,-1.90
2023-12-02T16:00:37.084Z,-1.90
2023-12-02T16:03:04.714Z,-1.90
2023-12-02T16:05:32.096Z,-1.80
2023-12-02T16:08:00.929Z,-1.80
2023-12-02T16:10:29.733Z,-1.70
2023-12-02T16:12:57.921Z,-1.80
2023-12-02T16:15:27.553Z,-1.80
2023-12-02T16:17:55.645Z,-1.80
2023-12-02T16:20:23.974Z,-1.80
2023-12-02T16:22:52.540Z,-1.90
2023-12-02T16:25:20.164Z,-1.90
2023-12-02T16:27:48.883Z,-1.80
2023-12-02T16:30:17.352Z,-1.70
2023-12-02T16:32:45.638Z,-1.70
2023-12-02T16:35:13.732Z,-1.80
2023-12-02T16:37:41.786Z,-1.80
2023-12-02T16:40:11.145Z,-1.80
2023-12-02T16:42:38.591Z,-1.80
2023-12-02T16:45:16.085Z,-1.80
2023-12-02T16:47:45.946Z,-1.80
2023-12-02T16:50:16.407Z,-1.80
2023-12-02T16:52:51.741Z,-1.80
2023-12-02T16:55:19.442Z,-1.80
2023-12-02T16:57:49.454Z,-1.80
2023-12-02T17:00:20.334Z,-1.70
2023-12-02T17:02:49.122Z,-1.70
2023-12-02T17:05:59.749Z,-1.70
2023-12-02T17:08:28.757Z,-1.70
2023-12-02T17:11:00.105Z,-1.70
2023-12-02T17:13:48.335Z,-1.70
2023-12-02T17:16:54.018Z,-1.70
2023-12-02T17:19:23.524Z,-1.60
2023-12-02T17:21:52.252Z,-1.60
2023-12-02T17:24:21.708Z,-1.60
2023-12-02T17:26:55.266Z,-1.60
2023-12-02T17:29:26.102Z,-1.60
2023-12-02T17:31:55.827Z,-1.50
2023-12-02T17:34:23.998Z,-1.50
2023-12-02T17:36:52.850Z,-1.50
2023-12-02T17:39:20.631Z,-1.50
2023-12-02T17:41:48.649Z,-1.50
2023-12-02T17:44:16.351Z,-1.40
2023-12-02T17:46:47.543Z,-1.40
2023-12-02T17:49:17.918Z,-1.40
2023-12-02T17:51:45.450Z,-1.40
2023-12-02T17:54:12.985Z,-1.40
2023-12-02T17:56:40.309Z,-1.50
2023-12-02T17:59:07.727Z,-1.50
2023-12-02T18:01:35.535Z,-1.50
2023-12-02T18:04:02.878Z,-1.40
2023-12-02T18:06:31.576Z,-1.40
2023-12-02T18:08:58.878Z,-1.30
2023-12-02T18:11:26.179Z,-1.40
2023-12-02T18:13:53.536Z,-1.40
2023-12-02T18:16:20.810Z,-1.40
2023-12-02T18:18:48.423Z,-1.40
2023-12-02T18:21:15.812Z,-1.40
2023-12-02T18:23:44.538Z,-1.40
2023-12-02T18:26:11.850Z,-1.40
2023-12-02T18:28:39.226Z,-1.30
2023-12-02T18:31:07.007Z,-1.30
2023-12-02T18:33:34.367Z,-1.30
2023-12-02T18:36:01.973Z,-1.30
2023-12-02T18:38:29.352Z,-1.30
2023-12-02T18:40:57.951Z,-1.30
2023-12-02T18:43:25.309Z,-1.30
2023-12-02T18:45:52.779Z,-1.30
2023-12-02T18:48:20.225Z,-1.20
2023-12-02T18:50:47.580Z,-1.20
2023-12-02T18:53:14.914Z,-1.20
2023-12-02T18:55:42.321Z,-1.20
2023-12-02T18:58:10.944Z,-1.20
2023-12-02T19:00:38.360Z,-1.20
2023-12-02T19:03:05.694Z,-1.30
2023-12-02T19:05:33.068Z,-1.20
2023-12-02T19:08:00.506Z,-1.20
2023-12-02T19:10:27.845Z,-1.20
2023-12-02T19:12:55.149Z,-1.10
2023-12-02T19:15:24.156Z,-1.10
2023-12-02T19:17:52.001Z,-1.10
2023-12-02T19:20:20.682Z,-1.00
2023-12-02T19:22:47.953Z,-1.00
2023-12-02T19:25:15.371Z,-1.00
2023-12-02T19:27:42.732Z,-1.00
2023-12-02T19:30:10.768Z,-1.00
2023-12-02T19:32:39.428Z,-1.00
2023-12-02T19:35:07.131Z,-1.00
2023-12-02T19:37:34.408Z,-1.00
2023-12-02T19:40:01.698Z,-1.00
2023-12-02T19:42:29.382Z,-1.00
2023-12-02T19:44:56.701Z,-1.00
2023-12-02T19:47:24.148Z,-1.00
2023-12-02T19:49:52.973Z,-1.00
2023-12-02T19:52:20.436Z,-0.90
2023-12-02T19:54:47.857Z,-1.00
2023-12-02T19:57:15.243Z,-1.00
2023-12-02T19:59:42.559Z,-1.00
2023-12-02T20:02:09.934Z,-1.00
2023-12-02T20:04:37.315Z,-1.00
2023-12-02T20:07:06.859Z,-0.90
2023-12-02T20:09:34.204Z,-0.90
2023-12-02T20:12:01.606Z,-0.90
2023-12-02T20:14:28.877Z,-0.80
2023-12-02T20:16:56.182Z,-0.90
2023-12-02T20:19:23.574Z,-1.00
2023-12-02T20:21:51.093Z,-1.10
2023-12-02T20:24:19.811Z,-1.10
2023-12-02T20:26:47.140Z,-1.10
2023-12-02T20:29:14.585Z,-1.10
2023-12-02T20:31:43.049Z,-1.00
2023-12-02T20:34:10.607Z,-0.90
2023-12-02T20:36:39.556Z,-0.90
2023-12-02T20:39:09.698Z,-0.80
2023-12-02T20:41:39.939Z,-0.80
2023-12-02T20:44:07.316Z,-0.90
2023-12-02T20:46:34.892Z,-0.80
2023-12-02T20:49:02.257Z,-0.80
2023-12-02T20:51:32.022Z,-0.90
2023-12-02T20:53:59.365Z,-0.90
2023-12-02T20:56:27.297Z,-0.90
2023-12-02T20:58:55.927Z,-0.90
2023-12-02T21:01:23.320Z,-0.90
2023-12-02T21:03:50.679Z,-1.00
2023-12-02T21:06:18.163Z,-0.90
2023-12-02T21:08:45.497Z,-0.90
2023-12-02T21:11:13.046Z,-0.90
2023-12-02T21:13:40.377Z,-0.90
2023-12-02T21:16:09.907Z,-0.80
2023-12-02T21:18:37.691Z,-0.70
2023-12-02T21:21:05.857Z,-0.70
2023-12-02T21:23:33.380Z,-0.80
2023-12-02T21:26:00.660Z,-0.70
2023-12-02T21:28:28.799Z,-0.70
2023-12-02T21:30:57.625Z,-0.60
2023-12-02T21:33:33.909Z,-0.60
2023-12-02T21:36:01.870Z,-0.60
2023-12-02T21:38:42.364Z,-0.60
2023-12-02T21:41:13.757Z,-0.60
2023-12-02T21:43:44.685Z,-0.60
2023-12-02T21:46:19.960Z,-0.60
2023-12-02T21:48:52.705Z,-0.60
2023-12-02T21:51:29.489Z,-0.60
2023-12-02T21:53:59.937Z,-0.60
2023-12-02T21:56:27.827Z,-0.60
2023-12-02T21:59:08.583Z,-0.60
2023-12-02T22:01:36.840Z,-0.50
2023-12-02T22:04:08.093Z,-0.50
2023-12-02T22:06:46.496Z,-0.50
2023-12-02T22:09:39.994Z,-0.60
2023-12-02T22:12:33.470Z,-0.60
2023-12-02T22:15:01.837Z,-0.50
2023-12-02T22:17:32.694Z,-0.60
2023-12-02T22:20:01.683Z,-0.60
2023-12-02T22:22:52.868Z,-0.60
2023-12-02T22:25:21.124Z,-0.60
2023-12-02T22:27:49.383Z,-0.50
2023-12-02T22:30:18.586Z,-0.50
2023-12-02T22:32:54.866Z,-0.40
2023-12-02T22:35:27.555Z,-0.40
2023-12-02T22:37:55.514Z,-0.40
2023-12-02T22:40:33.209Z,-0.50
2023-12-02T22:43:04.045Z,-0.50
2023-12-02T22:45:34.989Z,-0.40
2023-12-02T22:48:09.978Z,-0.40
2023-12-02T22:50:38.777Z,-0.40
2023-12-02T22:53:21.478Z,-0.40
2023-12-02T22:55:55.889Z,-0.30
2023-12-02T22:58:23.946Z,-0.40
2023-12-02T23:00:51.455Z,-0.30
2023-12-02T23:03:30.383Z,-0.30
2023-12-02T23:06:02.940Z,-0.30
2023-12-02T23:08:30.585Z,-0.30
2023-12-02T23:10:59.631Z,-0.20
2023-12-02T23:13:49.334Z,-0.30
2023-12-02T23:16:39.468Z,-0.30
2023-12-02T23:19:23.543Z,-0.30
2023-12-02T23:21:53.080Z,-0.30
2023-12-02T23:24:21.188Z,-0.30
2023-12-02T23:26:48.576Z,-0.40
2023-12-02T23:29:15.971Z,-0.30
2023-12-02T23:31:43.411Z,-0.30
2023-12-02T23:34:11.095Z,-0.30
2023-12-02T23:36:38.500Z,-0.30
2023-12-02T23:39:07.536Z,-0.30
2023-12-02T23:41:37.833Z,-0.20
2023-12-02T23:44:09.543Z,-0.30
2023-12-02T23:46:36.904Z,-0.30
2023-12-02T23:49:04.413Z,-0.30
2023-12-02T23:51:31.902Z,-0.20
2023-12-02T23:53:59.249Z,-0.20
2023-12-02T23:56:28.683Z,-0.30
2023-12-02T23:58:55.982Z,-0.30
